Time;durP1;ratioP1;P1;durP2;ratioP2;P2;SDS_P1;SDS_P2;PMS_P1;PMS_P2;Temp;Humidity;BMP_temperature;BMP_pressure;BME280_temperature;BME280_humidity;BME280_pressure;Samples;Min_cycle;Max_cycle;Signal;HPM_P1;HPM_P2
2021/04/15 00:01:25;;;;;;;29.05;18.23;;;;;;;8.72;72.91;100720.39;1786089;77;20958;-73
2021/04/15 00:03:55;;;;;;;31.02;18.73;;;;;;;8.68;72.86;100719.70;1787354;76;21017;-73
2021/04/15 00:06:28;;;;;;;25.72;17.12;;;;;;;8.65;72.92;100717.25;1794852;76;20991;31
2021/04/15 00:08:58;;;;;;;26.40;17.55;;;;;;;8.65;73.02;100714.63;1848328;76;21357;-76
2021/04/15 00:11:31;;;;;;;28.77;17.07;;;;;;;8.65;73.01;100717.72;1803393;77;21806;-74
2021/04/15 00:14:01;;;;;;;25.25;16.57;;;;;;;8.67;73.00;100711.92;1795140;77;21490;-76
2021/04/15 00:16:31;;;;;;;22.00;15.40;;;;;;;8.69;73.07;100710.08;1832940;76;21029;31
2021/04/15 00:19:00;;;;;;;20.35;15.30;;;;;;;8.75;73.25;100706.31;1819261;77;21187;-71
2021/04/15 00:21:29;;;;;;;25.92;15.80;;;;;;;8.82;73.03;100699.84;1817166;74;21499;-70
2021/04/15 00:24:01;;;;;;;20.00;15.55;;;;;;;8.88;72.83;100701.68;1827391;75;22033;31
2021/04/15 00:26:30;;;;;;;24.95;15.93;;;;;;;8.89;72.68;100702.08;1826773;75;20946;-72
2021/04/15 00:29:00;;;;;;;22.42;16.48;;;;;;;8.87;72.46;100716.13;1841114;75;20927;-76
2021/04/15 00:31:29;;;;;;;26.27;16.52;;;;;;;8.80;72.54;100716.07;1826714;75;21137;-70
2021/04/15 00:33:59;;;;;;;23.95;16.82;;;;;;;8.74;72.67;100717.25;1815900;76;20950;-77
2021/04/15 00:36:27;;;;;;;25.08;17.27;;;;;;;8.70;72.82;100710.01;1802444;77;22743;-75
2021/04/15 00:38:57;;;;;;;26.42;16.90;;;;;;;8.67;72.96;100706.69;1809737;75;21496;-72
2021/04/15 00:41:25;;;;;;;26.27;17.17;;;;;;;8.63;73.19;100706.48;1817074;73;21424;-76
2021/04/15 00:43:53;;;;;;;27.27;19.67;;;;;;;8.58;73.31;100705.85;1792602;78;20967;-72
2021/04/15 00:46:40;;;;;;;28.17;18.87;;;;;;;8.58;73.51;100702.80;1795724;77;20939;-76
2021/04/15 00:49:15;;;;;;;31.97;19.48;;;;;;;8.59;73.53;100708.40;1776277;77;22380;-77
2021/04/15 00:51:46;;;;;;;28.50;19.82;;;;;;;8.57;73.59;100706.32;1775587;78;20999;-73
2021/04/15 00:54:24;;;;;;;31.95;19.25;;;;;;;8.57;73.61;100706.79;1732898;77;21055;-73
2021/04/15 00:57:18;;;;;;;33.08;20.35;;;;;;;8.52;73.67;100708.80;1745227;77;21040;-71
2021/04/15 00:59:49;;;;;;;35.78;21.00;;;;;;;8.48;73.84;100712.02;1740170;77;20908;-72
2021/04/15 01:02:19;;;;;;;34.05;19.25;;;;;;;8.47;74.05;100709.87;1822942;73;21265;-75
2021/04/15 01:04:55;;;;;;;35.58;20.17;;;;;;;8.49;74.14;100701.92;1781623;77;21046;-76
2021/04/15 01:07:25;;;;;;;38.83;20.02;;;;;;;8.50;74.22;100704.94;1807459;78;21274;-72
2021/04/15 01:09:54;;;;;;;34.78;20.25;;;;;;;8.54;74.25;100704.31;1799484;75;21572;-69
2021/04/15 01:12:33;;;;;;;36.95;19.12;;;;;;;8.59;74.16;100703.64;1765656;79;21348;-76
2021/04/15 01:15:26;;;;;;;35.17;19.70;;;;;;;8.63;73.97;100706.02;1815399;76;22315;-76
2021/04/15 01:18:00;;;;;;;27.27;15.72;;;;;;;8.63;73.93;100709.10;1803782;76;21006;-72
2021/04/15 01:20:57;;;;;;;26.93;14.75;;;;;;;8.64;73.85;100702.94;1824840;76;21188;-70
2021/04/15 01:24:09;;;;;;;20.70;13.20;;;;;;;8.63;73.83;100703.88;1786234;76;21019;31
2021/04/15 01:27:08;;;;;;;20.37;12.73;;;;;;;8.62;73.78;100704.31;1780183;80;20946;-76
2021/04/15 01:29:59;;;;;;;20.32;13.48;;;;;;;8.61;73.87;100706.55;1840062;75;20958;-77
2021/04/15 01:32:56;;;;;;;21.02;12.20;;;;;;;8.59;73.90;100703.17;1835519;75;21013;-74
2021/04/15 01:35:53;;;;;;;19.32;11.55;;;;;;;8.55;73.93;100705.55;1757846;77;21020;-73
2021/04/15 01:38:51;;;;;;;18.70;12.03;;;;;;;8.47;74.01;100705.95;1826196;75;21734;-74
2021/04/15 01:41:29;;;;;;;22.65;11.95;;;;;;;8.43;74.21;100704.41;1843703;76;21533;-75
2021/04/15 01:47:08;;;;;;;16.00;9.88;;;;;;;8.55;74.47;100706.02;1807969;75;22373;-75
2021/04/15 01:49:38;;;;;;;13.72;10.23;;;;;;;8.52;74.48;100704.87;1809495;75;20979;-76
2021/04/15 01:52:12;;;;;;;13.58;10.13;;;;;;;8.50;74.61;100712.78;1763872;79;21341;-76
2021/04/15 01:54:58;;;;;;;13.73;9.17;;;;;;;8.48;74.69;100701.56;1814506;75;20922;-73
2021/04/15 01:58:36;;;;;;;14.30;9.25;;;;;;;8.51;74.87;100702.70;1806950;74;22735;-71
2021/04/15 02:01:12;;;;;;;14.60;9.58;;;;;;;8.44;75.10;100703.47;1743190;79;21522;31
2021/04/15 02:03:41;;;;;;;14.70;8.88;;;;;;;8.41;75.42;100697.56;1740095;76;22172;-73
2021/04/15 02:06:14;;;;;;;11.78;8.30;;;;;;;8.36;75.60;100694.28;1766887;76;21101;-75
2021/04/15 02:08:45;;;;;;;15.03;9.28;;;;;;;8.35;75.84;100693.91;1744246;77;21496;-76
2021/04/15 02:11:28;;;;;;;11.88;9.40;;;;;;;8.36;76.02;100692.54;1813224;73;20962;-75
2021/04/15 02:13:57;;;;;;;18.70;10.40;;;;;;;8.38;76.06;100689.83;1818260;75;21097;-73
2021/04/15 02:16:28;;;;;;;18.23;9.85;;;;;;;8.40;76.11;100686.25;1785572;76;21805;-75
2021/04/15 02:19:04;;;;;;;13.00;9.60;;;;;;;8.42;76.15;100688.32;1804947;77;21026;-75
2021/04/15 02:21:43;;;;;;;12.58;9.75;;;;;;;8.42;76.21;100688.80;1807890;75;20997;-75
2021/04/15 02:24:30;;;;;;;18.32;9.33;;;;;;;8.40;76.47;100681.45;1823837;75;21065;-76
2021/04/15 02:27:07;;;;;;;14.00;9.23;;;;;;;8.37;76.62;100685.07;1772804;75;21187;-75
2021/04/15 02:32:03;;;;;;;16.20;10.65;;;;;;;8.40;77.07;100684.06;1730103;75;22168;-75
2021/04/15 02:34:45;;;;;;;13.43;9.73;;;;;;;8.32;77.27;100686.23;1688081;77;20907;-75
2021/04/15 02:37:18;;;;;;;22.13;11.18;;;;;;;8.31;77.50;100681.45;1728396;78;21399;-74
2021/04/15 02:40:10;;;;;;;19.15;11.30;;;;;;;8.29;77.72;100668.92;1695272;81;21026;-76
2021/04/15 02:42:40;;;;;;;17.32;10.85;;;;;;;8.33;77.85;100670.93;1687538;81;20939;-74
2021/04/15 02:45:31;;;;;;;19.92;10.53;;;;;;;8.36;77.93;100671.63;1718160;79;21102;-75
2021/04/15 02:48:27;;;;;;;19.50;12.73;;;;;;;8.40;78.11;100673.18;1696805;79;20967;-75
2021/04/15 02:51:00;;;;;;;19.73;11.50;;;;;;;8.48;78.15;100674.12;1712570;78;22660;-75
2021/04/15 02:53:36;;;;;;;25.43;14.10;;;;;;;8.52;78.04;100675.66;1735743;79;21018;-75
2021/04/15 02:56:09;;;;;;;30.20;15.20;;;;;;;8.52;78.08;100675.66;1720710;80;20991;-74
2021/04/15 02:59:05;;;;;;;29.35;16.10;;;;;;;8.54;78.14;100669.89;1733958;77;21706;-76
2021/04/15 03:01:38;;;;;;;35.10;17.82;;;;;;;8.53;78.08;100679.11;1719151;78;21440;-74
2021/04/15 03:04:12;;;;;;;;;;;;;;;8.52;78.21;100677.44;1710914;79;22172;-77
2021/04/15 03:06:40;;;;;;;26.12;14.73;;;;;;;8.49;78.36;100681.89;1715621;78;20097;-74
2021/04/15 03:09:09;;;;;;;29.42;15.43;;;;;;;8.49;78.59;100679.28;1728702;78;20934;-70
2021/04/15 03:12:00;;;;;;;26.75;13.95;;;;;;;8.51;78.69;100683.09;1735785;79;21548;-77
2021/04/15 03:14:54;;;;;;;33.10;14.98;;;;;;;8.51;78.85;100681.79;1755855;78;20962;-77
2021/04/15 03:17:30;;;;;;;29.30;15.15;;;;;;;8.52;78.97;100682.66;1669449;81;21212;-75
2021/04/15 03:20:02;;;;;;;26.97;13.45;;;;;;;8.50;79.13;100679.64;1685048;78;20950;-75
2021/04/15 03:23:16;;;;;;;23.47;13.13;;;;;;;8.50;79.23;100684.03;1677953;81;21428;-74
2021/04/15 03:25:50;;;;;;;25.10;12.70;;;;;;;8.49;79.29;100677.10;1702141;79;21285;31
2021/04/15 03:28:37;;;;;;;19.12;12.65;;;;;;;8.48;79.66;100680.18;1703787;79;21386;-75
2021/04/15 03:31:09;;;;;;;25.15;12.50;;;;;;;8.48;79.78;100676.27;1700824;79;21423;-76
2021/04/15 03:34:02;;;;;;;25.43;14.43;;;;;;;8.49;79.88;100677.97;1728735;82;21491;-77
2021/04/15 03:36:36;;;;;;;19.20;14.07;;;;;;;8.48;79.99;100677.56;1665159;79;21005;31
2021/04/15 03:39:18;;;;;;;25.68;15.00;;;;;;;8.49;80.11;100677.10;1688919;81;21405;-76
2021/04/15 03:41:48;;;;;;;20.37;14.13;;;;;;;8.52;80.19;100683.50;1712292;79;21033;-77
2021/04/15 03:44:30;;;;;;;18.70;13.78;;;;;;;8.55;80.07;100685.11;1696376;84;21446;-78
2021/04/15 03:47:12;;;;;;;21.87;13.03;;;;;;;8.54;80.10;100684.70;1695185;83;21034;-76
2021/04/15 03:49:51;;;;;;;25.10;14.03;;;;;;;8.52;80.37;100683.50;1670778;79;21020;-74
2021/04/15 03:52:31;;;;;;;20.85;13.43;;;;;;;8.57;80.51;100685.88;1705678;79;21043;-76
2021/04/15 03:55:30;;;;;;;20.25;12.95;;;;;;;8.63;80.52;100694.25;1719777;78;21194;-77
2021/04/15 03:58:06;;;;;;;16.70;11.30;;;;;;;8.67;80.41;100689.27;1718377;78;21270;31
2021/04/15 04:00:41;;;;;;;19.98;13.30;;;;;;;8.69;80.23;100687.85;1737681;78;21042;-74
2021/04/15 04:03:13;;;;;;;22.93;13.38;;;;;;;8.71;80.22;100689.93;1718723;78;21011;-73
2021/04/15 04:05:48;;;;;;;18.80;11.40;;;;;;;8.78;80.18;100689.16;1698615;78;20956;-77
2021/04/15 04:09:13;;;;;;;18.37;11.18;;;;;;;8.82;80.03;100684.16;1714906;79;21149;-73
2021/04/15 04:11:42;;;;;;;21.40;10.25;;;;;;;8.83;79.81;100690.63;1638287;83;21387;-76
2021/04/15 04:14:24;;;;;;;19.65;12.15;;;;;;;8.78;79.88;100690.46;1717663;80;21528;-74
2021/04/15 04:17:15;;;;;;;23.73;13.05;;;;;;;8.82;80.17;100698.06;1701745;77;22874;-70
2021/04/15 04:19:56;;;;;;;24.30;14.53;;;;;;;8.83;80.30;100695.02;1729769;79;20989;-73
2021/04/15 04:23:04;;;;;;;20.15;14.80;;;;;;;8.92;80.23;100695.84;1708535;79;21216;-78
2021/04/15 04:25:40;;;;;;;29.10;17.20;;;;;;;8.98;79.92;100698.14;1676635;81;21015;-75
2021/04/15 04:28:24;;;;;;;27.50;16.87;;;;;;;9.00;79.84;100696.73;1661053;81;21074;-78
2021/04/15 04:30:59;;;;;;;29.37;17.02;;;;;;;9.01;79.89;100695.83;1691092;81;21632;-75
2021/04/15 04:33:41;;;;;;;33.70;16.93;;;;;;;8.98;79.83;100699.45;1716989;79;21045;-76
2021/04/15 04:36:11;;;;;;;23.98;15.90;;;;;;;8.96;79.98;100699.99;1765385;80;21001;-78
2021/04/15 04:38:39;;;;;;;33.58;20.35;;;;;;;8.93;80.14;100695.73;1701223;81;20995;-77
2021/04/15 04:41:25;;;;;;;32.93;20.02;;;;;;;8.95;80.31;100693.05;1710744;80;20965;-79
2021/04/15 04:43:57;;;;;;;38.53;22.58;;;;;;;8.98;80.32;100691.61;1714967;79;21012;-79
2021/04/15 04:46:34;;;;;;;38.88;22.13;;;;;;;9.01;80.26;100690.12;1705493;77;21229;-72
2021/04/15 04:49:39;;;;;;;39.15;23.67;;;;;;;9.05;80.28;100696.89;1721300;78;22747;-79
2021/04/15 04:52:19;;;;;;;36.13;23.80;;;;;;;9.11;80.19;100699.20;1696216;81;21094;-75
2021/04/15 04:54:48;;;;;;;44.00;25.57;;;;;;;9.19;80.03;100687.47;1716628;79;21138;-72
2021/04/15 04:57:51;;;;;;;42.05;24.70;;;;;;;9.24;79.98;100695.91;1675088;82;20986;-76
2021/04/15 05:00:21;;;;;;;43.68;24.23;;;;;;;9.24;79.91;100697.22;1752910;77;20923;-74
2021/04/15 05:02:54;;;;;;;42.83;26.90;;;;;;;9.25;79.93;100695.84;1703426;78;21379;31
2021/04/15 05:05:29;;;;;;;51.03;29.93;;;;;;;9.27;80.05;100699.66;1689937;78;21135;-73
2021/04/15 05:08:10;;;;;;;52.40;31.45;;;;;;;9.32;80.04;100695.89;1650912;82;21341;-75
2021/04/15 05:10:38;;;;;;;49.38;29.90;;;;;;;9.39;79.82;100697.71;1718394;79;21615;-77
2021/04/15 05:13:20;;;;;;;54.30;31.82;;;;;;;9.45;79.57;100699.14;1710433;79;22972;-73
2021/04/15 05:15:48;;;;;;;56.88;31.57;;;;;;;9.46;79.51;100699.06;1707257;77;22076;-83
2021/04/15 05:18:19;;;;;;;51.53;30.02;;;;;;;9.49;79.62;100688.45;1684255;80;20993;-76
2021/04/15 05:20:47;;;;;;;47.08;30.45;;;;;;;9.54;79.44;100686.89;1727514;78;20959;-75
2021/04/15 05:26:18;;;;;;;51.25;31.37;;;;;;;9.58;79.11;100691.47;1680630;82;21040;31
2021/04/15 05:28:52;;;;;;;49.05;29.65;;;;;;;9.53;79.14;100687.33;1696141;79;22162;-74
2021/04/15 05:31:23;;;;;;;49.80;26.68;;;;;;;9.50;79.23;100694.05;1696192;79;21058;-74
2021/04/15 05:34:56;;;;;;;48.87;29.05;;;;;;;9.51;79.34;100693.11;1684411;78;21167;-82
2021/04/15 05:37:46;;;;;;;51.42;25.43;;;;;;;9.53;79.37;100694.34;1730511;81;20969;-76
2021/04/15 05:40:15;;;;;;;41.20;23.67;;;;;;;9.54;79.33;100693.43;1732891;79;20962;-76
2021/04/15 05:42:48;;;;;;;41.95;23.98;;;;;;;9.55;79.44;100694.63;1693574;80;21149;-80
2021/04/15 05:45:24;;;;;;;39.55;24.35;;;;;;;9.54;79.47;100690.34;1662878;80;21124;-74
2021/04/15 05:48:10;;;;;;;45.58;25.05;;;;;;;9.55;79.55;100689.87;1677123;79;21063;-74
2021/04/15 05:50:57;;;;;;;42.58;25.77;;;;;;;9.55;79.60;100692.02;1692275;81;20954;-77
2021/04/15 05:53:37;;;;;;;37.55;23.32;;;;;;;9.58;79.69;100695.39;1710283;81;20952;-79
2021/04/15 06:02:53;;;;;;;30.97;19.67;;;;;;;9.62;79.93;100689.91;1588668;83;21035;31
2021/04/15 06:05:57;;;;;;;25.73;18.57;;;;;;;9.69;80.03;100689.10;1711105;80;21813;-81
2021/04/15 06:08:26;;;;;;;34.80;22.35;;;;;;;9.73;79.95;100688.84;1695802;80;20979;-81
2021/04/15 06:11:25;;;;;;;35.88;23.42;;;;;;;9.79;79.94;100692.08;1722759;78;20984;-77
2021/04/15 06:14:27;;;;;;;28.10;21.50;;;;;;;9.87;79.81;100693.78;1664423;81;20987;-77
2021/04/15 06:20:01;;;;;;;26.00;19.00;;;;;;;9.98;79.48;100687.47;1755262;79;21415;-74
2021/04/15 06:22:31;;;;;;;26.62;19.02;;;;;;;10.03;79.27;100691.17;1683384;80;20913;-76
2021/04/15 06:25:11;;;;;;;23.22;15.50;;;;;;;10.10;79.23;100688.58;1684632;80;21397;-79
2021/04/15 06:27:39;;;;;;;23.77;16.90;;;;;;;10.15;79.15;100689.98;1697506;80;21030;-77
2021/04/15 06:30:24;;;;;;;22.07;17.45;;;;;;;10.23;79.10;100697.90;1680308;81;21001;-78
2021/04/15 06:33:08;;;;;;;21.42;15.13;;;;;;;10.28;79.06;100703.71;1718229;79;20942;-77
2021/04/15 06:35:45;;;;;;;18.57;14.50;;;;;;;10.31;78.84;100696.53;1736954;82;20911;-77
2021/04/15 06:38:27;;;;;;;17.02;13.93;;;;;;;10.37;78.67;100701.42;1732968;80;21378;-78
2021/04/15 06:41:39;;;;;;;17.35;13.65;;;;;;;10.44;78.68;100694.52;1701446;82;20967;-78
2021/04/15 06:44:52;;;;;;;17.35;11.25;;;;;;;10.50;78.56;100699.42;1719032;82;20998;-78
2021/04/15 06:48:07;;;;;;;14.73;10.03;;;;;;;10.56;78.18;100699.91;1707482;79;21053;-78
2021/04/15 06:51:07;;;;;;;13.22;10.68;;;;;;;10.62;77.89;100697.38;1685011;79;20969;-78
2021/04/15 06:54:07;;;;;;;14.38;11.65;;;;;;;10.65;77.81;100700.27;1671810;81;21485;-78
2021/04/15 06:57:13;;;;;;;12.50;11.18;;;;;;;10.68;77.87;100698.80;1717174;78;21047;-79
2021/04/15 07:00:25;;;;;;;12.75;10.85;;;;;;;10.71;77.99;100702.55;1720557;80;21027;-77
2021/04/15 07:03:17;;;;;;;8.80;7.90;;;;;;;10.73;77.89;100707.23;1696223;79;21032;-78
2021/04/15 07:06:09;;;;;;;;;;;;;;;;;;;;;
2021/04/15 07:09:23;;;;;;;5.85;5.35;;;;;;;10.75;77.96;100707.52;1577205;90;21078;-79
2021/04/15 07:12:34;;;;;;;5.28;4.85;;;;;;;10.75;77.80;100704.89;1655769;83;21153;-80
2021/04/15 07:15:52;;;;;;;5.80;5.20;;;;;;;10.76;77.77;100704.41;1694010;83;20968;-79
2021/04/15 07:18:58;;;;;;;7.12;5.53;;;;;;;10.76;77.53;100700.48;1714033;81;21062;31
2021/04/15 07:22:05;;;;;;;6.83;6.08;;;;;;;10.78;77.45;100699.92;1629380;83;21484;31
2021/04/15 07:25:23;;;;;;;5.92;5.17;;;;;;;10.82;77.35;100695.35;1680193;82;21168;-80
2021/04/15 07:28:12;;;;;;;7.37;6.10;;;;;;;10.86;77.30;100699.48;1621447;83;21499;-79
2021/04/15 07:31:27;;;;;;;7.33;6.72;;;;;;;10.89;77.37;100697.50;1685091;81;20950;31
2021/04/15 07:34:41;;;;;;;8.30;6.35;;;;;;;11.06;77.28;100700.43;1743681;77;22787;-82
2021/04/15 07:38:09;;;;;;;7.33;6.62;;;;;;;11.09;77.11;100701.55;1694838;78;21018;-79
2021/04/15 07:41:19;;;;;;;8.43;6.37;;;;;;;11.16;76.79;100700.70;1720573;80;21381;-80
2021/04/15 07:44:38;;;;;;;8.68;7.17;;;;;;;11.19;76.53;100699.22;1654021;79;21154;-80
2021/04/15 07:47:22;;;;;;;8.00;6.70;;;;;;;11.24;76.17;100699.77;1682938;79;21751;-81
2021/04/15 07:50:53;;;;;;;7.90;6.78;;;;;;;11.21;76.13;100703.91;1652282;82;20980;-80
2021/04/15 07:53:44;;;;;;;8.23;6.50;;;;;;;11.26;76.32;100703.62;1664622;81;21425;-79
2021/04/15 07:56:33;;;;;;;8.93;6.92;;;;;;;11.28;76.21;100702.59;1625435;82;21207;-77
2021/04/15 07:59:46;;;;;;;9.98;8.38;;;;;;;11.29;76.22;100700.80;1669038;81;21014;-76
2021/04/15 08:03:01;;;;;;;10.28;9.33;;;;;;;11.35;75.88;100697.33;1857302;74;22471;-83
2021/04/15 08:05:55;;;;;;;12.07;9.08;;;;;;;11.31;75.50;100697.14;1762753;78;21110;-79
2021/04/15 08:08:40;;;;;;;9.65;8.45;;;;;;;11.26;75.51;100697.90;1757711;78;21195;-81
2021/04/15 08:11:50;;;;;;;9.53;8.55;;;;;;;11.25;75.47;100696.67;1813348;75;21288;-79
2021/04/15 08:14:34;;;;;;;10.35;9.38;;;;;;;11.20;75.40;100692.58;1765562;77;21208;-81
2021/04/15 08:17:36;;;;;;;13.38;8.38;;;;;;;11.17;75.89;100691.43;1798373;77;20974;-81
2021/04/15 08:23:44;;;;;;;12.45;10.13;;;;;;;11.30;75.32;100688.91;1760917;77;20899;-82
2021/04/15 08:26:56;;;;;;;11.95;10.82;;;;;;;11.35;74.85;100685.98;1728007;76;21404;-83
2021/04/15 08:29:57;;;;;;;9.48;8.55;;;;;;;11.38;74.51;100684.47;1803363;76;20966;-83
2021/04/15 08:32:54;;;;;;;10.55;9.08;;;;;;;11.44;74.13;100683.27;1834724;75;21503;-88
2021/04/15 08:35:54;;;;;;;10.58;7.90;;;;;;;11.43;73.89;100678.48;1779511;75;20930;-84
2021/04/15 08:38:37;;;;;;;11.88;8.93;;;;;;;11.44;73.65;100680.16;1818535;76;21379;-83
2021/04/15 08:41:48;;;;;;;10.15;8.15;;;;;;;11.44;73.47;100675.38;1838152;76;20948;-80
2021/04/15 08:44:58;;;;;;;11.65;10.38;;;;;;;11.47;73.22;100677.36;1824470;75;21038;-79
2021/04/15 08:48:14;;;;;;;12.03;10.82;;;;;;;11.57;73.19;100678.92;1805548;75;21121;-80
2021/04/15 08:50:55;;;;;;;14.60;11.93;;;;;;;11.70;72.97;100679.00;1784517;76;21073;-82
2021/04/15 08:53:49;;;;;;;11.85;9.53;;;;;;;11.85;72.95;100675.84;1801278;75;20962;-78
2021/04/15 08:56:26;;;;;;;8.05;7.25;;;;;;;11.99;72.64;100673.20;1856329;76;20978;-79
2021/04/15 08:59:42;;;;;;;9.78;8.53;;;;;;;12.09;71.71;100672.95;1750522;78;21028;-75
2021/04/15 09:02:56;;;;;;;10.25;9.08;;;;;;;12.14;71.45;100668.27;1798648;75;20913;-81
2021/04/15 09:06:04;;;;;;;10.30;9.20;;;;;;;12.21;71.13;100670.85;1816152;76;20959;-81
2021/04/15 09:09:10;;;;;;;11.88;9.25;;;;;;;12.31;71.08;100668.44;1764415;80;22105;-77
2021/04/15 09:12:19;;;;;;;10.93;9.83;;;;;;;12.39;70.51;100669.27;1765888;78;20921;-81
2021/04/15 09:15:33;;;;;;;18.05;11.57;;;;;;;12.37;70.29;100668.52;1725319;80;20993;-80
2021/04/15 09:18:08;;;;;;;15.68;13.45;;;;;;;12.28;70.72;100671.29;1747077;78;21156;-77
2021/04/15 09:21:33;;;;;;;11.80;10.40;;;;;;;12.17;71.40;100669.84;1727582;78;21491;-83
2021/04/15 09:24:36;;;;;;;16.02;13.32;;;;;;;12.06;71.52;100674.48;1693198;80;21215;-82
2021/04/15 09:27:25;;;;;;;17.00;14.35;;;;;;;11.96;72.03;100673.38;1746152;79;21031;-77
2021/04/15 09:30:19;;;;;;;21.45;14.60;;;;;;;11.93;72.34;100670.97;1736902;76;20956;-78
2021/04/15 09:33:02;;;;;;;15.38;13.72;;;;;;;11.88;72.64;100674.37;1722002;79;20985;-79
2021/04/15 09:36:04;;;;;;;16.05;12.70;;;;;;;11.89;72.99;100675.56;1703247;82;21475;-77
2021/04/15 09:39:11;;;;;;;16.55;14.25;;;;;;;11.89;73.18;100681.30;1751085;78;21203;-81
2021/04/15 09:42:13;;;;;;;18.37;15.35;;;;;;;11.89;73.25;100676.05;1758531;78;20980;-75
2021/04/15 09:45:57;;;;;;;24.33;18.23;;;;;;;11.96;73.04;100662.42;1738106;76;22850;-81
2021/04/15 09:48:42;;;;;;;22.55;18.40;;;;;;;11.93;73.08;100673.12;1719758;78;20975;-82
2021/04/15 09:52:11;;;;;;;32.88;19.73;;;;;;;11.88;72.80;100671.75;1718055;78;21211;-79
2021/04/15 09:55:32;;;;;;;23.80;18.07;;;;;;;11.82;72.66;100671.63;1774458;77;21136;31
2021/04/15 09:58:41;;;;;;;28.17;18.90;;;;;;;11.77;72.68;100669.30;1748320;76;21062;-82
2021/04/15 10:01:19;;;;;;;;;;;;;;;11.73;73.14;100667.80;1788871;75;21104;-81
2021/04/15 10:04:16;;;;;;;30.15;18.82;;;;;;;11.69;73.24;100666.78;1775405;77;20156;-80
2021/04/15 10:10:26;;;;;;;31.27;21.50;;;;;;;11.61;74.34;100665.97;1708378;79;21004;-81
2021/04/15 10:14:02;;;;;;;32.40;24.87;;;;;;;11.71;74.85;100665.73;1845009;74;22258;-82
2021/04/15 10:21:05;;;;;;;31.85;23.00;;;;;;;11.81;74.71;100666.84;1747196;75;22905;-76
2021/04/15 10:24:24;;;;;;;33.50;25.97;;;;;;;11.78;74.61;100670.13;1692584;80;20957;-81
2021/04/15 10:27:31;;;;;;;33.63;22.87;;;;;;;11.73;74.73;100675.68;1640043;82;21591;-79
2021/04/15 10:30:54;;;;;;;33.28;24.40;;;;;;;11.76;74.86;100674.64;1829690;75;23187;-75
2021/04/15 10:34:19;;;;;;;33.88;26.97;;;;;;;11.69;74.85;100674.19;1707699;78;21033;-74
2021/04/15 10:37:10;;;;;;;33.98;25.27;;;;;;;11.63;74.99;100668.03;1807253;75;21354;-73
2021/04/15 10:40:05;;;;;;;29.90;23.83;;;;;;;11.59;75.19;100667.85;1697868;78;21099;-76
2021/04/15 10:43:02;;;;;;;25.77;20.27;;;;;;;11.58;75.51;100670.95;1776720;77;20971;-77
2021/04/15 10:45:56;;;;;;;24.20;17.80;;;;;;;11.59;75.38;100667.37;1714673;80;21312;-73
2021/04/15 10:48:38;;;;;;;;;;;;;;;11.66;75.37;100669.14;1740172;78;20954;-78
2021/04/15 10:51:12;;;;;;;18.17;13.75;;;;;;;11.78;75.61;100674.07;1750198;78;21214;-78
2021/04/15 10:53:51;;;;;;;16.87;14.10;;;;;;;11.89;75.55;100664.22;1732855;77;21032;-75
2021/04/15 10:56:30;;;;;;;18.05;14.70;;;;;;;11.97;75.31;100663.27;1708899;81;20977;-76
2021/04/15 11:02:35;;;;;;;13.83;11.85;;;;;;;12.17;74.66;100658.02;1822984;77;27177;-76
2021/04/15 11:05:26;;;;;;;10.00;8.33;;;;;;;12.17;74.26;100661.95;1773751;78;20933;-76
2021/04/15 11:07:58;;;;;;;8.13;7.30;;;;;;;12.24;73.84;100654.86;1804405;77;21352;-74
2021/04/15 11:10:30;;;;;;;8.70;6.42;;;;;;;12.30;72.82;100652.31;1729432;79;21068;-75
2021/04/15 11:13:22;;;;;;;9.28;6.40;;;;;;;12.36;72.73;100647.09;1696342;79;21467;31
2021/04/15 11:15:58;;;;;;;9.83;6.37;;;;;;;12.54;72.53;100637.13;1678219;79;21025;-76
2021/04/15 11:18:31;;;;;;;6.70;5.35;;;;;;;12.77;72.68;100634.25;1707512;82;21041;-77
2021/04/15 11:21:24;;;;;;;9.68;6.30;;;;;;;13.00;72.16;100633.95;1708206;84;21683;-77
2021/04/15 11:24:20;;;;;;;6.62;5.72;;;;;;;13.17;70.75;100628.35;1713875;80;20931;-76
2021/04/15 11:26:52;;;;;;;8.05;5.75;;;;;;;13.26;70.04;100632.12;1699154;78;21055;-75
2021/04/15 11:29:28;;;;;;;7.55;6.35;;;;;;;13.33;69.13;100635.20;1669366;79;21101;-76
2021/04/15 11:31:58;;;;;;;5.12;4.67;;;;;;;13.30;68.63;100635.42;1727537;78;20978;-79
2021/04/15 11:34:38;;;;;;;8.45;6.40;;;;;;;13.33;68.64;100633.40;1760264;80;21213;-76
2021/04/15 11:37:12;;;;;;;7.95;6.15;;;;;;;13.41;68.40;100627.59;1761350;75;20960;-78
2021/04/15 11:39:46;;;;;;;9.48;7.47;;;;;;;13.53;68.50;100632.45;1755236;77;21027;-79
2021/04/15 11:42:15;;;;;;;8.20;7.42;;;;;;;13.62;68.51;100626.02;1695632;77;20936;-79
2021/04/15 11:44:56;;;;;;;7.20;6.50;;;;;;;13.73;68.14;100625.73;1707467;78;21037;-85
2021/04/15 11:47:32;;;;;;;10.55;7.80;;;;;;;13.80;66.72;100617.73;1719559;79;21212;-86
2021/04/15 11:50:22;;;;;;;13.45;9.48;;;;;;;13.82;66.67;100624.57;1760867;77;20988;31
2021/04/15 11:52:56;;;;;;;10.90;9.38;;;;;;;13.84;66.66;100612.61;1741913;78;21002;-83
2021/04/15 11:55:32;;;;;;;12.18;9.48;;;;;;;13.83;66.83;100616.20;1737175;80;20973;-85
2021/04/15 11:58:03;;;;;;;12.90;9.63;;;;;;;13.78;66.43;100615.20;1721719;77;21060;-80
2021/04/15 12:00:36;;;;;;;12.78;11.08;;;;;;;13.75;66.39;100610.16;1721237;78;22087;-85
2021/04/15 12:03:14;;;;;;;11.70;10.05;;;;;;;13.71;66.29;100611.34;1719786;79;20965;-83
2021/04/15 12:05:53;;;;;;;12.35;11.05;;;;;;;13.66;66.51;100611.67;1732153;79;21005;-78
2021/04/15 12:08:31;;;;;;;11.57;9.58;;;;;;;13.59;66.92;100614.89;1726606;81;20942;-82
2021/04/15 12:11:17;;;;;;;5.42;4.92;;;;;;;13.52;66.81;100621.08;1726856;80;20997;-82
2021/04/15 12:14:16;;;;;;;3.08;2.72;;;;;;;13.25;63.92;100623.84;1715958;82;21073;-87
2021/04/15 12:17:00;;;;;;;2.40;2.20;;;;;;;12.93;64.28;100623.02;1750655;79;21480;-92
2021/04/15 12:19:56;;;;;;;7.33;5.08;;;;;;;12.68;64.77;100623.05;1662059;85;21014;-88
2021/04/15 12:22:45;;;;;;;4.20;2.42;;;;;;;12.50;65.25;100622.04;1692239;79;21072;-74
2021/04/15 12:25:47;;;;;;;4.25;3.15;;;;;;;12.38;65.47;100625.03;1661550;80;20999;-75
2021/04/15 12:28:34;;;;;;;2.25;2.05;;;;;;;12.36;66.12;100624.30;1694709;82;21380;-83
2021/04/15 12:31:36;;;;;;;4.20;2.67;;;;;;;12.37;66.28;100616.76;1678133;83;21017;-85
2021/04/15 12:34:38;;;;;;;3.92;2.80;;;;;;;12.46;67.19;100618.41;1703029;79;20998;-83
2021/04/15 12:37:38;;;;;;;6.45;4.08;;;;;;;12.56;67.42;100616.81;1700570;81;21004;-84
2021/04/15 12:40:33;;;;;;;4.30;3.90;;;;;;;12.60;67.48;100616.50;1794913;77;21019;-93
2021/04/15 12:43:09;;;;;;;7.10;4.22;;;;;;;12.66;68.41;100611.30;1814048;78;21193;-84
2021/04/15 12:46:18;;;;;;;6.25;5.75;;;;;;;12.72;69.21;100608.73;1724569;79;21001;-78
2021/04/15 12:49:07;;;;;;;7.05;6.35;;;;;;;12.74;69.21;100606.36;1766246;79;21041;-88
2021/04/15 12:52:13;;;;;;;10.72;7.37;;;;;;;12.81;68.96;100601.03;1751606;75;27153;-74
2021/04/15 12:54:44;;;;;;;13.45;8.53;;;;;;;12.78;69.13;100606.97;1715332;78;21781;-82
2021/04/15 12:57:20;;;;;;;12.85;9.75;;;;;;;12.77;68.84;100603.50;1718062;82;21348;-84
2021/04/15 12:59:50;;;;;;;9.53;8.58;;;;;;;12.77;69.23;100595.61;1703351;82;21482;-80
2021/04/15 13:02:36;;;;;;;11.08;10.00;;;;;;;12.77;69.36;100602.67;1688960;81;20962;-88
2021/04/15 13:05:39;;;;;;;12.73;11.53;;;;;;;12.69;69.13;100607.13;1684140;82;21090;-83
2021/04/15 13:08:41;;;;;;;12.53;11.43;;;;;;;12.62;69.47;100611.98;1628284;83;21008;-84
2021/04/15 13:12:25;;;;;;;15.25;10.53;;;;;;;12.55;70.00;100611.20;1801825;78;26131;-86
2021/04/15 13:15:13;;;;;;;13.40;12.15;;;;;;;12.41;70.45;100618.72;1768973;80;21010;-84
2021/04/15 13:18:43;;;;;;;14.38;10.72;;;;;;;12.33;70.69;100611.81;1621462;86;21075;-85
2021/04/15 13:21:32;;;;;;;12.95;11.12;;;;;;;12.29;70.85;100614.27;1661254;84;20993;-83
2021/04/15 13:26:45;;;;;;;10.80;9.58;;;;;;;12.28;70.95;100612.61;1652902;85;21200;-88
2021/04/15 13:29:34;;;;;;;9.65;7.90;;;;;;;12.28;70.88;100608.18;1673446;80;21478;-76